sensor_id;sensor_type;location;lat;lon;timestamp;noise_LAeq;noise_LA_min;noise_LA_max;noise_LA01;noise_LA95
69668;Laerm;66534;52.370;4.832;2024-02-26T00:00:07;55.29;50.59;57.99;;
69668;Laerm;66534;52.370;4.832;2024-02-26T00:00:39;45.77;40.28;52.29;;
69668;Laerm;66534;52.370;4.832;2024-02-26T00:01:09;42.02;39.81;45.52;;
69668;Laerm;66534;52.370;4.832;2024-02-26T00:01:40;41.51;38.83;47.04;;
69668;Laerm;66534;52.370;4.832;2024-02-26T00:02:11;44.38;38.75;50.93;;
69668;Laerm;66534;52.370;4.832;2024-02-26T00:02:41;40.25;37.80;43.57;;
69668;Laerm;66534;52.370;4.832;2024-02-26T00:03:12;42.83;39.58;51.17;;
69668;Laerm;66534;52.370;4.832;2024-02-26T00:03:42;44.94;39.44;57.84;;
69668;Laerm;66534;52.370;4.832;2024-02-26T00:04:15;42.25;39.47;53.21;;
69668;Laerm;66534;52.370;4.832;2024-02-26T00:04:45;44.46;39.87;56.91;;
69668;Laerm;66534;52.370;4.832;2024-02-26T00:05:15;43.44;40.05;48.48;;
69668;Laerm;66534;52.370;4.832;2024-02-26T00:05:46;43.16;39.06;47.53;;
69668;Laerm;66534;52.370;4.832;2024-02-26T00:06:16;46.87;38.93;70.14;;
69668;Laerm;66534;52.370;4.832;2024-02-26T00:06:48;44.16;40.15;49.66;;
69668;Laerm;66534;52.370;4.832;2024-02-26T00:07:21;42.78;38.20;54.45;;
69668;Laerm;66534;52.370;4.832;2024-02-26T00:07:51;41.46;38.08;51.99;;
69668;Laerm;66534;52.370;4.832;2024-02-26T00:08:22;43.77;39.86;48.91;;
69668;Laerm;66534;52.370;4.832;2024-02-26T00:08:53;41.97;38.11;45.52;;
69668;Laerm;66534;52.370;4.832;2024-02-26T00:09:23;42.99;38.95;48.87;;
69668;Laerm;66534;52.370;4.832;2024-02-26T00:09:53;44.10;39.88;48.69;;
69668;Laerm;66534;52.370;4.832;2024-02-26T00:10:24;45.23;41.81;57.15;;
69668;Laerm;66534;52.370;4.832;2024-02-26T00:10:54;46.97;39.01;64.88;;
69668;Laerm;66534;52.370;4.832;2024-02-26T00:11:24;40.34;38.54;43.92;;
69668;Laerm;66534;52.370;4.832;2024-02-26T00:11:55;43.15;39.01;49.29;;
69668;Laerm;66534;52.370;4.832;2024-02-26T00:12:25;43.13;39.93;47.25;;
69668;Laerm;66534;52.370;4.832;2024-02-26T00:12:56;43.47;40.69;46.50;;
69668;Laerm;66534;52.370;4.832;2024-02-26T00:13:26;43.27;39.21;52.95;;
69668;Laerm;66534;52.370;4.832;2024-02-26T00:13:56;43.92;38.82;58.14;;
69668;Laerm;66534;52.370;4.832;2024-02-26T00:14:28;42.06;39.56;46.46;;
69668;Laerm;66534;52.370;4.832;2024-02-26T00:14:58;40.36;38.07;46.19;;
69668;Laerm;66534;52.370;4.832;2024-02-26T00:15:28;43.04;39.55;48.64;;
69668;Laerm;66534;52.370;4.832;2024-02-26T00:16:03;41.08;38.44;47.58;;
69668;Laerm;66534;52.370;4.832;2024-02-26T00:16:34;40.70;38.44;46.44;;
69668;Laerm;66534;52.370;4.832;2024-02-26T00:17:04;40.85;38.23;45.21;;
69668;Laerm;66534;52.370;4.832;2024-02-26T00:17:34;51.47;38.30;62.99;;
69668;Laerm;66534;52.370;4.832;2024-02-26T00:18:05;51.13;43.32;62.36;;
69668;Laerm;66534;52.370;4.832;2024-02-26T00:18:35;44.65;39.32;53.31;;
69668;Laerm;66534;52.370;4.832;2024-02-26T00:19:06;41.55;38.55;48.12;;
69668;Laerm;66534;52.370;4.832;2024-02-26T00:19:37;43.86;38.31;48.93;;
69668;Laerm;66534;52.370;4.832;2024-02-26T00:20:10;42.68;39.02;48.37;;
69668;Laerm;66534;52.370;4.832;2024-02-26T00:20:40;43.92;40.25;51.55;;
69668;Laerm;66534;52.370;4.832;2024-02-26T00:21:13;43.07;40.34;48.42;;
69668;Laerm;66534;52.370;4.832;2024-02-26T00:21:43;40.77;38.51;48.70;;
69668;Laerm;66534;52.370;4.832;2024-02-26T00:22:14;40.22;38.35;42.56;;
69668;Laerm;66534;52.370;4.832;2024-02-26T00:22:44;40.69;38.58;49.21;;
69668;Laerm;66534;52.370;4.832;2024-02-26T00:23:15;41.10;38.68;46.49;;
69668;Laerm;66534;52.370;4.832;2024-02-26T00:23:45;42.39;39.16;47.60;;
69668;Laerm;66534;52.370;4.832;2024-02-26T00:24:16;42.54;39.27;47.30;;
69668;Laerm;66534;52.370;4.832;2024-02-26T00:24:46;41.47;39.25;44.19;;
69668;Laerm;66534;52.370;4.832;2024-02-26T00:25:17;42.39;39.00;47.77;;
69668;Laerm;66534;52.370;4.832;2024-02-26T00:25:47;43.01;38.91;52.59;;
69668;Laerm;66534;52.370;4.832;2024-02-26T00:26:17;46.49;39.68;61.56;;
69668;Laerm;66534;52.370;4.832;2024-02-26T00:26:48;41.89;39.00;53.14;;
69668;Laerm;66534;52.370;4.832;2024-02-26T00:27:23;41.39;39.38;46.51;;
69668;Laerm;66534;52.370;4.832;2024-02-26T00:27:55;45.27;39.91;55.37;;
69668;Laerm;66534;52.370;4.832;2024-02-26T00:28:26;44.81;41.32;59.06;;
69668;Laerm;66534;52.370;4.832;2024-02-26T00:28:57;41.55;38.74;47.76;;
69668;Laerm;66534;52.370;4.832;2024-02-26T00:29:27;41.23;38.27;49.99;;
69668;Laerm;66534;52.370;4.832;2024-02-26T00:29:58;41.30;38.10;53.82;;
69668;Laerm;66534;52.370;4.832;2024-02-26T00:30:28;39.15;36.73;43.25;;
69668;Laerm;66534;52.370;4.832;2024-02-26T00:30:59;40.71;38.14;43.87;;
69668;Laerm;66534;52.370;4.832;2024-02-26T00:31:29;40.53;38.03;46.03;;
69668;Laerm;66534;52.370;4.832;2024-02-26T00:32:00;43.00;37.59;49.67;;
69668;Laerm;66534;52.370;4.832;2024-02-26T00:32:30;42.57;38.02;53.47;;
69668;Laerm;66534;52.370;4.832;2024-02-26T00:33:00;38.71;36.95;43.53;;
69668;Laerm;66534;52.370;4.832;2024-02-26T00:33:31;40.16;37.37;47.97;;
69668;Laerm;66534;52.370;4.832;2024-02-26T00:34:01;42.48;37.53;48.00;;
69668;Laerm;66534;52.370;4.832;2024-02-26T00:34:32;39.91;37.90;49.91;;
69668;Laerm;66534;52.370;4.832;2024-02-26T00:35:02;39.43;37.14;45.07;;
69668;Laerm;66534;52.370;4.832;2024-02-26T00:35:32;41.38;38.69;48.97;;
69668;Laerm;66534;52.370;4.832;2024-02-26T00:36:03;43.36;39.29;49.83;;
69668;Laerm;66534;52.370;4.832;2024-02-26T00:36:34;44.09;39.19;51.64;;
69668;Laerm;66534;52.370;4.832;2024-02-26T00:37:04;44.00;38.15;57.58;;
69668;Laerm;66534;52.370;4.832;2024-02-26T00:37:35;40.97;38.25;44.60;;
69668;Laerm;66534;52.370;4.832;2024-02-26T00:38:05;41.02;38.58;44.89;;
69668;Laerm;66534;52.370;4.832;2024-02-26T00:38:36;43.65;38.79;50.27;;
69668;Laerm;66534;52.370;4.832;2024-02-26T00:39:06;41.34;39.03;43.70;;
69668;Laerm;66534;52.370;4.832;2024-02-26T00:39:37;40.85;38.25;44.33;;
69668;Laerm;66534;52.370;4.832;2024-02-26T00:40:07;40.46;38.25;45.16;;
69668;Laerm;66534;52.370;4.832;2024-02-26T00:40:39;43.99;39.25;50.56;;
69668;Laerm;66534;52.370;4.832;2024-02-26T00:41:10;42.99;39.21;52.48;;
69668;Laerm;66534;52.370;4.832;2024-02-26T00:41:41;43.38;39.44;48.56;;
69668;Laerm;66534;52.370;4.832;2024-02-26T00:42:11;43.16;39.14;50.00;;
69668;Laerm;66534;52.370;4.832;2024-02-26T00:42:42;43.80;38.93;53.62;;
69668;Laerm;66534;52.370;4.832;2024-02-26T00:43:16;39.21;37.00;41.17;;
69668;Laerm;66534;52.370;4.832;2024-02-26T00:43:46;39.67;36.64;44.10;;
69668;Laerm;66534;52.370;4.832;2024-02-26T00:44:17;41.66;39.52;44.22;;
69668;Laerm;66534;52.370;4.832;2024-02-26T00:44:48;41.40;37.30;46.73;;
69668;Laerm;66534;52.370;4.832;2024-02-26T00:45:18;41.44;38.15;50.63;;
69668;Laerm;66534;52.370;4.832;2024-02-26T00:45:48;42.39;37.66;49.29;;
69668;Laerm;66534;52.370;4.832;2024-02-26T00:46:19;41.90;39.34;44.96;;
69668;Laerm;66534;52.370;4.832;2024-02-26T00:46:49;41.96;39.13;46.60;;
69668;Laerm;66534;52.370;4.832;2024-02-26T00:47:20;42.97;38.71;49.94;;
69668;Laerm;66534;52.370;4.832;2024-02-26T00:47:50;41.13;38.80;44.68;;
69668;Laerm;66534;52.370;4.832;2024-02-26T00:48:20;41.23;38.12;44.26;;
69668;Laerm;66534;52.370;4.832;2024-02-26T00:48:51;41.44;38.45;47.13;;
69668;Laerm;66534;52.370;4.832;2024-02-26T00:49:21;41.77;39.13;44.79;;
69668;Laerm;66534;52.370;4.832;2024-02-26T00:49:51;42.37;37.63;54.13;;
69668;Laerm;66534;52.370;4.832;2024-02-26T00:50:22;40.78;38.15;43.83;;
69668;Laerm;66534;52.370;4.832;2024-02-26T00:50:52;39.87;37.37;50.94;;
69668;Laerm;66534;52.370;4.832;2024-02-26T00:51:22;39.32;37.09;42.68;;
69668;Laerm;66534;52.370;4.832;2024-02-26T00:51:53;41.08;38.51;46.31;;
69668;Laerm;66534;52.370;4.832;2024-02-26T00:52:23;43.43;39.82;49.78;;
69668;Laerm;66534;52.370;4.832;2024-02-26T00:52:54;41.07;38.02;46.37;;
69668;Laerm;66534;52.370;4.832;2024-02-26T00:53:24;39.71;38.04;41.76;;
69668;Laerm;66534;52.370;4.832;2024-02-26T00:53:55;41.06;38.35;46.77;;
69668;Laerm;66534;52.370;4.832;2024-02-26T00:54:25;39.60;37.11;43.38;;
69668;Laerm;66534;52.370;4.832;2024-02-26T00:54:56;39.07;36.85;41.38;;
69668;Laerm;66534;52.370;4.832;2024-02-26T00:55:26;40.70;37.55;48.63;;
69668;Laerm;66534;52.370;4.832;2024-02-26T00:55:57;41.25;38.56;47.71;;
69668;Laerm;66534;52.370;4.832;2024-02-26T00:56:29;41.44;37.92;47.17;;
69668;Laerm;66534;52.370;4.832;2024-02-26T00:56:59;44.37;39.05;50.41;;
69668;Laerm;66534;52.370;4.832;2024-02-26T00:57:30;41.74;37.01;47.59;;
69668;Laerm;66534;52.370;4.832;2024-02-26T00:58:00;39.86;37.25;43.00;;
69668;Laerm;66534;52.370;4.832;2024-02-26T00:58:30;40.20;37.95;42.15;;
69668;Laerm;66534;52.370;4.832;2024-02-26T00:59:01;43.44;39.67;47.78;;
69668;Laerm;66534;52.370;4.832;2024-02-26T00:59:31;40.54;38.41;46.47;;
69668;Laerm;66534;52.370;4.832;2024-02-26T01:00:02;43.65;38.40;60.67;;
69668;Laerm;66534;52.370;4.832;2024-02-26T01:00:32;43.09;38.39;53.59;;
69668;Laerm;66534;52.370;4.832;2024-02-26T01:01:02;41.99;38.16;46.55;;
69668;Laerm;66534;52.370;4.832;2024-02-26T01:01:33;40.88;37.82;49.64;;
69668;Laerm;66534;52.370;4.832;2024-02-26T01:02:03;40.41;37.76;43.87;;
69668;Laerm;66534;52.370;4.832;2024-02-26T01:02:35;40.05;37.70;43.74;;
69668;Laerm;66534;52.370;4.832;2024-02-26T01:03:06;40.32;37.80;43.15;;
69668;Laerm;66534;52.370;4.832;2024-02-26T01:03:36;40.01;38.06;43.29;;
69668;Laerm;66534;52.370;4.832;2024-02-26T01:04:06;40.71;38.47;46.37;;
69668;Laerm;66534;52.370;4.832;2024-02-26T01:04:37;42.25;39.39;50.18;;
69668;Laerm;66534;52.370;4.832;2024-02-26T01:05:08;42.40;39.02;52.45;;
69668;Laerm;66534;52.370;4.832;2024-02-26T01:05:41;42.22;39.51;54.41;;
69668;Laerm;66534;52.370;4.832;2024-02-26T01:06:12;42.96;39.52;51.58;;
69668;Laerm;66534;52.370;4.832;2024-02-26T01:06:42;45.20;40.04;56.04;;
69668;Laerm;66534;52.370;4.832;2024-02-26T01:07:13;44.54;39.51;55.95;;
69668;Laerm;66534;52.370;4.832;2024-02-26T01:07:43;40.64;37.65;46.68;;
69668;Laerm;66534;52.370;4.832;2024-02-26T01:08:13;40.02;37.76;44.00;;
69668;Laerm;66534;52.370;4.832;2024-02-26T01:08:44;40.27;38.12;51.54;;
69668;Laerm;66534;52.370;4.832;2024-02-26T01:09:14;43.64;38.00;53.49;;
69668;Laerm;66534;52.370;4.832;2024-02-26T01:09:44;44.00;37.99;59.78;;
69668;Laerm;66534;52.370;4.832;2024-02-26T01:10:15;41.61;37.50;48.24;;
69668;Laerm;66534;52.370;4.832;2024-02-26T01:10:45;45.16;40.35;58.13;;
69668;Laerm;66534;52.370;4.832;2024-02-26T01:11:16;42.97;38.50;57.42;;
69668;Laerm;66534;52.370;4.832;2024-02-26T01:11:46;43.23;40.01;48.78;;
69668;Laerm;66534;52.370;4.832;2024-02-26T01:12:17;44.55;39.92;50.10;;
69668;Laerm;66534;52.370;4.832;2024-02-26T01:12:47;48.27;41.83;57.40;;
69668;Laerm;66534;52.370;4.832;2024-02-26T01:13:18;44.83;40.90;51.40;;
69668;Laerm;66534;52.370;4.832;2024-02-26T01:13:48;43.13;40.05;46.67;;
69668;Laerm;66534;52.370;4.832;2024-02-26T01:14:19;43.24;38.56;56.01;;
69668;Laerm;66534;52.370;4.832;2024-02-26T01:14:49;42.90;38.76;52.10;;
69668;Laerm;66534;52.370;4.832;2024-02-26T01:15:20;41.28;38.78;45.61;;
69668;Laerm;66534;52.370;4.832;2024-02-26T01:15:53;39.69;37.41;43.14;;
69668;Laerm;66534;52.370;4.832;2024-02-26T01:16:27;40.72;37.39;50.90;;
69668;Laerm;66534;52.370;4.832;2024-02-26T01:17:00;41.21;38.53;48.40;;
69668;Laerm;66534;52.370;4.832;2024-02-26T01:17:30;45.24;40.59;56.81;;
69668;Laerm;66534;52.370;4.832;2024-02-26T01:18:02;43.82;40.14;48.07;;
69668;Laerm;66534;52.370;4.832;2024-02-26T01:18:32;41.81;39.26;48.20;;
69668;Laerm;66534;52.370;4.832;2024-02-26T01:19:02;41.99;39.31;47.54;;
69668;Laerm;66534;52.370;4.832;2024-02-26T01:19:33;40.68;37.84;45.88;;
69668;Laerm;66534;52.370;4.832;2024-02-26T01:20:04;40.33;38.34;44.78;;
69668;Laerm;66534;52.370;4.832;2024-02-26T01:20:35;41.45;38.56;44.52;;
69668;Laerm;66534;52.370;4.832;2024-02-26T01:21:05;45.33;40.02;57.18;;
69668;Laerm;66534;52.370;4.832;2024-02-26T01:21:38;40.78;38.20;45.36;;
69668;Laerm;66534;52.370;4.832;2024-02-26T01:22:09;39.93;37.85;42.56;;
69668;Laerm;66534;52.370;4.832;2024-02-26T01:22:39;43.63;38.95;52.17;;
69668;Laerm;66534;52.370;4.832;2024-02-26T01:23:12;43.88;39.31;57.00;;
69668;Laerm;66534;52.370;4.832;2024-02-26T01:23:43;41.74;39.56;46.29;;
69668;Laerm;66534;52.370;4.832;2024-02-26T01:24:13;42.25;38.27;53.86;;
69668;Laerm;66534;52.370;4.832;2024-02-26T01:24:43;49.00;40.97;67.69;;
69668;Laerm;66534;52.370;4.832;2024-02-26T01:25:14;44.17;39.72;57.36;;
69668;Laerm;66534;52.370;4.832;2024-02-26T01:25:46;44.73;39.61;55.10;;
69668;Laerm;66534;52.370;4.832;2024-02-26T01:26:16;41.23;39.28;45.14;;
69668;Laerm;66534;52.370;4.832;2024-02-26T01:26:46;43.85;38.97;61.24;;
69668;Laerm;66534;52.370;4.832;2024-02-26T01:27:17;41.54;38.83;51.84;;
69668;Laerm;66534;52.370;4.832;2024-02-26T01:27:47;46.35;39.51;57.73;;
69668;Laerm;66534;52.370;4.832;2024-02-26T01:28:17;43.77;39.13;56.12;;
69668;Laerm;66534;52.370;4.832;2024-02-26T01:28:48;41.06;37.49;52.20;;
69668;Laerm;66534;52.370;4.832;2024-02-26T01:29:18;40.03;37.84;46.89;;
69668;Laerm;66534;52.370;4.832;2024-02-26T01:29:49;39.56;37.50;42.95;;
69668;Laerm;66534;52.370;4.832;2024-02-26T01:30:19;41.24;38.64;45.05;;
69668;Laerm;66534;52.370;4.832;2024-02-26T01:30:50;43.09;38.94;56.58;;
69668;Laerm;66534;52.370;4.832;2024-02-26T01:31:20;44.38;39.39;53.16;;
69668;Laerm;66534;52.370;4.832;2024-02-26T01:31:51;41.86;38.22;46.52;;
69668;Laerm;66534;52.370;4.832;2024-02-26T01:32:21;43.09;39.25;50.47;;
69668;Laerm;66534;52.370;4.832;2024-02-26T01:32:52;41.21;38.27;50.00;;
69668;Laerm;66534;52.370;4.832;2024-02-26T01:33:25;41.29;38.04;45.86;;
69668;Laerm;66534;52.370;4.832;2024-02-26T01:33:56;47.58;38.70;64.92;;
69668;Laerm;66534;52.370;4.832;2024-02-26T01:34:26;42.63;38.19;54.65;;
69668;Laerm;66534;52.370;4.832;2024-02-26T01:34:57;41.12;37.49;46.71;;
69668;Laerm;66534;52.370;4.832;2024-02-26T01:35:27;41.56;37.54;51.25;;
69668;Laerm;66534;52.370;4.832;2024-02-26T01:35:57;42.60;39.22;46.96;;
69668;Laerm;66534;52.370;4.832;2024-02-26T01:36:28;41.80;37.82;46.97;;
69668;Laerm;66534;52.370;4.832;2024-02-26T01:36:58;41.62;37.74;55.12;;
69668;Laerm;66534;52.370;4.832;2024-02-26T01:37:29;39.63;36.23;42.81;;
69668;Laerm;66534;52.370;4.832;2024-02-26T01:38:02;40.44;38.30;44.45;;
69668;Laerm;66534;52.370;4.832;2024-02-26T01:38:33;41.12;38.38;46.95;;
69668;Laerm;66534;52.370;4.832;2024-02-26T01:39:03;42.66;39.25;48.42;;
69668;Laerm;66534;52.370;4.832;2024-02-26T01:39:33;41.33;38.60;47.98;;
69668;Laerm;66534;52.370;4.832;2024-02-26T01:40:05;40.26;38.14;42.59;;
69668;Laerm;66534;52.370;4.832;2024-02-26T01:40:37;46.82;38.78;62.60;;
69668;Laerm;66534;52.370;4.832;2024-02-26T01:41:07;53.98;41.31;59.46;;
69668;Laerm;66534;52.370;4.832;2024-02-26T01:41:41;41.42;39.30;45.28;;
69668;Laerm;66534;52.370;4.832;2024-02-26T01:42:11;43.22;39.13;56.25;;
69668;Laerm;66534;52.370;4.832;2024-02-26T01:42:41;40.81;38.06;47.51;;
69668;Laerm;66534;52.370;4.832;2024-02-26T01:43:12;41.12;37.34;51.42;;
69668;Laerm;66534;52.370;4.832;2024-02-26T01:43:42;41.33;38.85;51.21;;
69668;Laerm;66534;52.370;4.832;2024-02-26T01:44:13;41.07;38.67;45.39;;
69668;Laerm;66534;52.370;4.832;2024-02-26T01:44:46;46.01;38.79;62.66;;
69668;Laerm;66534;52.370;4.832;2024-02-26T01:45:16;42.99;39.48;47.41;;
69668;Laerm;66534;52.370;4.832;2024-02-26T01:45:51;41.00;38.12;45.11;;
69668;Laerm;66534;52.370;4.832;2024-02-26T01:46:22;41.76;38.60;45.13;;
69668;Laerm;66534;52.370;4.832;2024-02-26T01:46:53;45.65;39.18;56.23;;
69668;Laerm;66534;52.370;4.832;2024-02-26T01:47:24;41.80;38.21;48.23;;
69668;Laerm;66534;52.370;4.832;2024-02-26T01:47:55;40.86;38.20;46.81;;
69668;Laerm;66534;52.370;4.832;2024-02-26T01:48:27;44.01;39.52;50.79;;
69668;Laerm;66534;52.370;4.832;2024-02-26T01:48:57;42.20;37.99;53.47;;
69668;Laerm;66534;52.370;4.832;2024-02-26T01:49:28;42.12;38.17;46.48;;
69668;Laerm;66534;52.370;4.832;2024-02-26T01:49:59;41.50;39.25;44.42;;
69668;Laerm;66534;52.370;4.832;2024-02-26T01:50:29;41.56;38.77;46.40;;
69668;Laerm;66534;52.370;4.832;2024-02-26T01:51:00;43.46;39.17;49.20;;
69668;Laerm;66534;52.370;4.832;2024-02-26T01:51:32;40.34;37.23;48.83;;
69668;Laerm;66534;52.370;4.832;2024-02-26T01:52:04;41.13;38.06;49.83;;
69668;Laerm;66534;52.370;4.832;2024-02-26T01:52:36;43.70;38.06;55.43;;
69668;Laerm;66534;52.370;4.832;2024-02-26T01:53:07;41.38;38.09;48.79;;
69668;Laerm;66534;52.370;4.832;2024-02-26T01:53:38;41.69;37.69;48.21;;
69668;Laerm;66534;52.370;4.832;2024-02-26T01:54:09;40.27;37.45;47.99;;
69668;Laerm;66534;52.370;4.832;2024-02-26T01:54:40;40.86;37.72;50.02;;
69668;Laerm;66534;52.370;4.832;2024-02-26T01:55:11;47.07;38.59;62.01;;
69668;Laerm;66534;52.370;4.832;2024-02-26T01:55:41;41.63;38.14;48.36;;
69668;Laerm;66534;52.370;4.832;2024-02-26T01:56:12;41.20;37.89;47.89;;
69668;Laerm;66534;52.370;4.832;2024-02-26T01:56:45;42.81;38.69;48.10;;
69668;Laerm;66534;52.370;4.832;2024-02-26T01:57:15;42.65;37.71;52.20;;
69668;Laerm;66534;52.370;4.832;2024-02-26T01:57:48;42.51;37.38;54.11;;
69668;Laerm;66534;52.370;4.832;2024-02-26T01:58:20;43.38;37.09;63.68;;
69668;Laerm;66534;52.370;4.832;2024-02-26T01:58:50;40.97;37.04;57.57;;
69668;Laerm;66534;52.370;4.832;2024-02-26T01:59:24;40.70;37.68;51.17;;
69668;Laerm;66534;52.370;4.832;2024-02-26T01:59:55;40.79;37.80;52.14;;
69668;Laerm;66534;52.370;4.832;2024-02-26T02:00:26;41.26;37.20;59.17;;
69668;Laerm;66534;52.370;4.832;2024-02-26T02:00:57;41.15;37.50;53.95;;
69668;Laerm;66534;52.370;4.832;2024-02-26T02:01:29;41.25;37.86;45.88;;
69668;Laerm;66534;52.370;4.832;2024-02-26T02:02:01;40.34;37.58;43.68;;
69668;Laerm;66534;52.370;4.832;2024-02-26T02:02:33;40.58;38.27;44.74;;
69668;Laerm;66534;52.370;4.832;2024-02-26T02:03:04;38.74;36.72;40.51;;
69668;Laerm;66534;52.370;4.832;2024-02-26T02:03:35;41.00;38.05;52.93;;
69668;Laerm;66534;52.370;4.832;2024-02-26T02:04:06;45.19;37.82;57.56;;
69668;Laerm;66534;52.370;4.832;2024-02-26T02:04:37;41.34;38.39;50.28;;
69668;Laerm;66534;52.370;4.832;2024-02-26T02:05:08;47.15;39.38;55.36;;
69668;Laerm;66534;52.370;4.832;2024-02-26T02:05:39;54.90;38.10;70.11;;
69668;Laerm;66534;52.370;4.832;2024-02-26T02:06:12;40.02;37.76;44.07;;
69668;Laerm;66534;52.370;4.832;2024-02-26T02:06:45;40.60;37.45;47.13;;
69668;Laerm;66534;52.370;4.832;2024-02-26T02:07:16;40.14;37.43;43.41;;
69668;Laerm;66534;52.370;4.832;2024-02-26T02:07:47;40.15;37.47;45.54;;
69668;Laerm;66534;52.370;4.832;2024-02-26T02:08:18;39.20;36.75;44.18;;
69668;Laerm;66534;52.370;4.832;2024-02-26T02:08:49;38.77;36.59;43.47;;
69668;Laerm;66534;52.370;4.832;2024-02-26T02:09:19;39.73;37.55;41.94;;
69668;Laerm;66534;52.370;4.832;2024-02-26T02:09:50;38.50;36.27;42.32;;
69668;Laerm;66534;52.370;4.832;2024-02-26T02:10:20;38.09;36.34;42.49;;
69668;Laerm;66534;52.370;4.832;2024-02-26T02:10:56;38.92;36.45;43.53;;
69668;Laerm;66534;52.370;4.832;2024-02-26T02:11:27;39.09;37.01;41.02;;
69668;Laerm;66534;52.370;4.832;2024-02-26T02:11:58;39.10;36.38;41.87;;
69668;Laerm;66534;52.370;4.832;2024-02-26T02:12:28;41.66;38.25;46.67;;
69668;Laerm;66534;52.370;4.832;2024-02-26T02:12:58;40.49;37.28;44.11;;
69668;Laerm;66534;52.370;4.832;2024-02-26T02:13:29;39.23;37.06;42.42;;
69668;Laerm;66534;52.370;4.832;2024-02-26T02:14:00;38.95;36.50;50.40;;
69668;Laerm;66534;52.370;4.832;2024-02-26T02:14:30;40.09;36.72;44.56;;
69668;Laerm;66534;52.370;4.832;2024-02-26T02:15:01;42.37;37.37;50.54;;
69668;Laerm;66534;52.370;4.832;2024-02-26T02:15:31;44.47;36.62;58.98;;
69668;Laerm;66534;52.370;4.832;2024-02-26T02:16:02;40.26;36.70;52.50;;
69668;Laerm;66534;52.370;4.832;2024-02-26T02:16:34;40.57;36.73;53.11;;
69668;Laerm;66534;52.370;4.832;2024-02-26T02:17:04;42.30;38.04;52.12;;
69668;Laerm;66534;52.370;4.832;2024-02-26T02:17:35;42.35;36.49;57.06;;
69668;Laerm;66534;52.370;4.832;2024-02-26T02:18:06;39.50;37.46;41.26;;
69668;Laerm;66534;52.370;4.832;2024-02-26T02:18:36;39.92;37.19;42.47;;
69668;Laerm;66534;52.370;4.832;2024-02-26T02:19:07;40.40;37.62;45.73;;
69668;Laerm;66534;52.370;4.832;2024-02-26T02:19:37;43.23;39.15;51.62;;
69668;Laerm;66534;52.370;4.832;2024-02-26T02:20:09;40.12;36.74;47.68;;
69668;Laerm;66534;52.370;4.832;2024-02-26T02:20:40;39.24;36.93;41.61;;
69668;Laerm;66534;52.370;4.832;2024-02-26T02:21:10;38.79;36.86;41.98;;
69668;Laerm;66534;52.370;4.832;2024-02-26T02:21:41;38.91;36.72;42.02;;
69668;Laerm;66534;52.370;4.832;2024-02-26T02:22:12;38.76;36.47;45.15;;
69668;Laerm;66534;52.370;4.832;2024-02-26T02:22:42;38.98;36.96;43.76;;
69668;Laerm;66534;52.370;4.832;2024-02-26T02:23:13;39.40;37.67;48.80;;
69668;Laerm;66534;52.370;4.832;2024-02-26T02:23:44;40.88;36.97;56.06;;
69668;Laerm;66534;52.370;4.832;2024-02-26T02:24:16;38.68;36.46;41.40;;
69668;Laerm;66534;52.370;4.832;2024-02-26T02:24:47;39.34;36.72;44.49;;
69668;Laerm;66534;52.370;4.832;2024-02-26T02:25:17;41.89;36.39;58.93;;
69668;Laerm;66534;52.370;4.832;2024-02-26T02:25:50;39.07;35.65;46.53;;
69668;Laerm;66534;52.370;4.832;2024-02-26T02:26:20;38.74;36.62;45.88;;
69668;Laerm;66534;52.370;4.832;2024-02-26T02:26:51;39.07;36.18;43.55;;
69668;Laerm;66534;52.370;4.832;2024-02-26T02:27:21;41.33;36.36;52.05;;
69668;Laerm;66534;52.370;4.832;2024-02-26T02:27:54;40.14;36.37;46.65;;
69668;Laerm;66534;52.370;4.832;2024-02-26T02:28:26;41.26;37.49;52.38;;
69668;Laerm;66534;52.370;4.832;2024-02-26T02:28:58;40.37;36.86;42.89;;
69668;Laerm;66534;52.370;4.832;2024-02-26T02:29:29;37.94;36.10;41.09;;
69668;Laerm;66534;52.370;4.832;2024-02-26T02:30:01;42.15;36.57;57.83;;
69668;Laerm;66534;52.370;4.832;2024-02-26T02:30:32;41.81;37.77;47.10;;
69668;Laerm;66534;52.370;4.832;2024-02-26T02:31:03;43.69;37.52;54.63;;
69668;Laerm;66534;52.370;4.832;2024-02-26T02:31:34;40.14;37.80;43.73;;
69668;Laerm;66534;52.370;4.832;2024-02-26T02:32:04;42.32;37.11;53.78;;
69668;Laerm;66534;52.370;4.832;2024-02-26T02:32:37;40.34;36.76;55.66;;
69668;Laerm;66534;52.370;4.832;2024-02-26T02:33:09;39.76;37.12;45.47;;
69668;Laerm;66534;52.370;4.832;2024-02-26T02:33:42;40.14;37.39;47.15;;
69668;Laerm;66534;52.370;4.832;2024-02-26T02:34:13;44.95;37.97;59.15;;
69668;Laerm;66534;52.370;4.832;2024-02-26T02:34:45;39.08;36.24;47.69;;
69668;Laerm;66534;52.370;4.832;2024-02-26T02:35:16;38.23;35.78;42.58;;
69668;Laerm;66534;52.370;4.832;2024-02-26T02:35:46;40.49;37.44;54.53;;
69668;Laerm;66534;52.370;4.832;2024-02-26T02:36:19;40.37;37.51;52.05;;
69668;Laerm;66534;52.370;4.832;2024-02-26T02:36:53;42.03;39.03;45.63;;
69668;Laerm;66534;52.370;4.832;2024-02-26T02:37:24;39.76;37.47;43.42;;
69668;Laerm;66534;52.370;4.832;2024-02-26T02:37:57;38.45;36.55;42.31;;
69668;Laerm;66534;52.370;4.832;2024-02-26T02:38:27;39.64;37.13;47.29;;
69668;Laerm;66534;52.370;4.832;2024-02-26T02:39:00;41.41;37.54;48.74;;
69668;Laerm;66534;52.370;4.832;2024-02-26T02:39:30;40.45;37.54;45.09;;
69668;Laerm;66534;52.370;4.832;2024-02-26T02:40:00;48.22;37.97;62.83;;
69668;Laerm;66534;52.370;4.832;2024-02-26T02:40:31;52.14;41.13;65.05;;
69668;Laerm;66534;52.370;4.832;2024-02-26T02:41:01;43.64;38.07;59.48;;
69668;Laerm;66534;52.370;4.832;2024-02-26T02:41:32;40.88;37.59;45.19;;
69668;Laerm;66534;52.370;4.832;2024-02-26T02:42:02;39.28;36.94;47.06;;
69668;Laerm;66534;52.370;4.832;2024-02-26T02:42:33;38.70;36.78;41.81;;
69668;Laerm;66534;52.370;4.832;2024-02-26T02:43:03;40.14;36.17;49.63;;
69668;Laerm;66534;52.370;4.832;2024-02-26T02:43:34;40.75;38.76;44.41;;
69668;Laerm;66534;52.370;4.832;2024-02-26T02:44:05;44.50;37.80;51.46;;
69668;Laerm;66534;52.370;4.832;2024-02-26T02:44:35;39.42;36.84;42.28;;
69668;Laerm;66534;52.370;4.832;2024-02-26T02:45:06;41.18;36.91;51.13;;
69668;Laerm;66534;52.370;4.832;2024-02-26T02:45:36;39.81;37.17;52.92;;
69668;Laerm;66534;52.370;4.832;2024-02-26T02:46:07;41.49;37.13;61.78;;
69668;Laerm;66534;52.370;4.832;2024-02-26T02:46:38;49.51;37.43;64.36;;
69668;Laerm;66534;52.370;4.832;2024-02-26T02:47:09;42.94;37.96;58.21;;
69668;Laerm;66534;52.370;4.832;2024-02-26T02:47:39;39.71;37.29;45.54;;
69668;Laerm;66534;52.370;4.832;2024-02-26T02:48:10;39.57;36.51;42.63;;
69668;Laerm;66534;52.370;4.832;2024-02-26T02:48:41;39.45;35.97;47.83;;
69668;Laerm;66534;52.370;4.832;2024-02-26T02:49:12;38.26;36.28;45.19;;
69668;Laerm;66534;52.370;4.832;2024-02-26T02:49:42;38.98;37.16;40.74;;
69668;Laerm;66534;52.370;4.832;2024-02-26T02:50:13;40.46;37.54;44.81;;
69668;Laerm;66534;52.370;4.832;2024-02-26T02:50:43;39.99;38.04;45.13;;
69668;Laerm;66534;52.370;4.832;2024-02-26T02:51:13;39.89;37.78;43.42;;
69668;Laerm;66534;52.370;4.832;2024-02-26T02:51:45;39.37;36.68;48.42;;
69668;Laerm;66534;52.370;4.832;2024-02-26T02:52:15;38.98;36.80;41.39;;
69668;Laerm;66534;52.370;4.832;2024-02-26T02:52:45;38.92;36.12;42.54;;